Andrew Antrainer — WDI5303 — position and weather

sailwx.info

Track history (hours):
 
Tides and Currents Weather Stations Pressure Air Temp Water Temp Dewpoint Dewpoint Depression Visibility Wind Speed Wind Dir Waves Ship Positions

Andrew Antrainer

Owner: Florida Marine,LLC, Mandeville, LA. More information available from US FCC via Universal Licensing System and Coast Guard Vessel Documentation Center.

Last reported at 2017-Oct-18 23:30 UTC. Time now 2017-Oct-18 23:58 UTC.
Position N 30°06' W 093°18'.

Length 37 m; draft 3.2 m.

Type: Other ship. MMSI: 367707210.

Date/timePositionNaut miles runAvg speedWind from/ knotsBaromVisibWave heightAir tempDewpointWater temp
2017-Oct-18 23:30N 30°06' W 093°18'0 0.0
2017-Oct-18 23:00N 30°06' W 093°18'0 0.0
2017-Oct-18 22:30N 30°06' W 093°18'0 0.0
2017-Oct-18 22:01N 30°06' W 093°18'0 0.0
2017-Oct-18 21:30N 30°06' W 093°18'0 0.0
2017-Oct-18 21:01N 30°06' W 093°18'0 0.0
2017-Oct-18 20:31N 30°06' W 093°18'0 0.0
2017-Oct-18 20:01N 30°06' W 093°18'0 0.0
2017-Oct-18 19:31N 30°06' W 093°18'0 0.0
2017-Oct-18 19:00N 30°06' W 093°18'0 0.9
2017-Oct-18 18:31N 30°06' W 093°19'2 3.8
2017-Oct-18 18:01N 30°05' W 093°20'2 3.0
2017-Oct-18 17:30N 30°04' W 093°22'2 4.3
2017-Oct-18 17:00N 30°04' W 093°24'2 4.8
2017-Oct-18 16:31N 30°04' W 093°27'  
2017-Oct-14 07:58N 30°04' W 094°04'0 0.0
2017-Oct-14 07:30N 30°04' W 094°04'12 0.7
2017-Oct-13 13:39N 29°57' W 093°52'0 0.0
2017-Oct-13 13:30N 29°57' W 093°52'0 0.0
2017-Oct-13 13:00N 29°57' W 093°52'0 0.1
2017-Oct-13 08:26N 29°58' W 093°52'0 0.0
2017-Oct-13 08:00N 29°58' W 093°52'0 0.0
2017-Oct-13 07:30N 29°58' W 093°52'  
2017-Oct-09 03:13N 29°51' W 093°58'0 0.0
2017-Oct-09 02:53N 29°51' W 093°58'0 0.0
2017-Oct-09 02:29N 29°51' W 093°58'0 0.0
2017-Oct-09 01:56N 29°51' W 093°58'0 0.0
2017-Oct-09 01:29N 29°51' W 093°58'0 0.0
2017-Oct-09 00:59N 29°51' W 093°58'  
Track history (hours):
 
Tides and Currents Weather Stations Pressure Air Temp Water Temp Dewpoint Dewpoint Depression Visibility Wind Speed Wind Dir Waves Ship Positions

Andrew Antrainer

Owner: Florida Marine,LLC, Mandeville, LA. More information available from US FCC via Universal Licensing System and Coast Guard Vessel Documentation Center.

Last reported at 2017-Oct-18 23:30 UTC. Time now 2017-Oct-18 23:58 UTC.
Position N 30°06' W 093°18'.

Length 37 m; draft 3.2 m.

Type: Other ship. MMSI: 367707210.

Date/timePositionNaut miles runAvg speedWind from/ knotsBaromVisibWave heightAir tempDewpointWater temp
2017-Oct-18 23:30N 30°06' W 093°18'0 0.0
2017-Oct-18 23:00N 30°06' W 093°18'0 0.0
2017-Oct-18 22:30N 30°06' W 093°18'0 0.0
2017-Oct-18 22:01N 30°06' W 093°18'0 0.0
2017-Oct-18 21:30N 30°06' W 093°18'0 0.0
2017-Oct-18 21:01N 30°06' W 093°18'0 0.0
2017-Oct-18 20:31N 30°06' W 093°18'0 0.0
2017-Oct-18 20:01N 30°06' W 093°18'0 0.0
2017-Oct-18 19:31N 30°06' W 093°18'0 0.0
2017-Oct-18 19:00N 30°06' W 093°18'0 0.9
2017-Oct-18 18:31N 30°06' W 093°19'2 3.8
2017-Oct-18 18:01N 30°05' W 093°20'2 3.0
2017-Oct-18 17:30N 30°04' W 093°22'2 4.3
2017-Oct-18 17:00N 30°04' W 093°24'2 4.8
2017-Oct-18 16:31N 30°04' W 093°27'  
2017-Oct-14 07:58N 30°04' W 094°04'0 0.0
2017-Oct-14 07:30N 30°04' W 094°04'12 0.7
2017-Oct-13 13:39N 29°57' W 093°52'0 0.0
2017-Oct-13 13:30N 29°57' W 093°52'0 0.0
2017-Oct-13 13:00N 29°57' W 093°52'0 0.1
2017-Oct-13 08:26N 29°58' W 093°52'0 0.0
2017-Oct-13 08:00N 29°58' W 093°52'0 0.0
2017-Oct-13 07:30N 29°58' W 093°52'  
2017-Oct-09 03:13N 29°51' W 093°58'0 0.0
2017-Oct-09 02:53N 29°51' W 093°58'0 0.0
2017-Oct-09 02:29N 29°51' W 093°58'0 0.0
2017-Oct-09 01:56N 29°51' W 093°58'0 0.0
2017-Oct-09 01:29N 29°51' W 093°58'0 0.0
2017-Oct-09 00:59N 29°51' W 093°58'  

Dump ship's entire track history